Time;durP1;ratioP1;P1;durP2;ratioP2;P2;SDS_P1;SDS_P2;PMS_P1;PMS_P2;Temp;Humidity;BMP_temperature;BMP_pressure;BME280_temperature;BME280_humidity;BME280_pressure;Samples;Min_cycle;Max_cycle;Signal;HPM_P1;HPM_P2
2023/12/30 00:01:34;;;;;;;0.80;0.80;;;6.30;1.00;;;;;;5096621;28;20201;-80
2023/12/30 00:04:00;;;;;;;0.73;0.73;;;6.30;1.00;;;;;;5096960;28;20562;-82
2023/12/30 00:06:26;;;;;;;0.70;0.70;;;6.30;1.00;;;;;;5095281;28;20243;-83
2023/12/30 00:08:51;;;;;;;0.70;0.70;;;6.30;1.00;;;;;;5097066;28;20765;-82
2023/12/30 00:11:17;;;;;;;0.63;0.63;;;6.30;1.00;;;;;;5096737;28;20212;-82
2023/12/30 00:13:42;;;;;;;0.73;0.73;;;6.40;1.00;;;;;;5097046;28;20170;-82
2023/12/30 00:16:10;;;;;;;0.67;0.67;;;6.40;1.00;;;;;;5095944;28;20194;-82
2023/12/30 00:18:36;;;;;;;0.70;0.70;;;6.40;1.00;;;;;;5096678;28;20173;-82
2023/12/30 00:21:02;;;;;;;0.77;0.77;;;6.40;1.00;;;;;;5094546;28;20174;-82
2023/12/30 00:23:29;;;;;;;0.70;0.70;;;6.40;1.00;;;;;;5096949;28;20234;-82
2023/12/30 00:25:54;;;;;;;0.70;0.70;;;6.40;1.00;;;;;;5095668;28;20745;-80
2023/12/30 00:28:21;;;;;;;0.80;0.80;;;6.40;1.00;;;;;;5095185;28;20173;-81
2023/12/30 00:30:47;;;;;;;0.70;0.70;;;6.40;1.00;;;;;;5096842;28;20212;-81
2023/12/30 00:33:13;;;;;;;0.73;0.73;;;6.30;1.00;;;;;;5096959;28;20170;-81
2023/12/30 00:35:39;;;;;;;0.80;0.80;;;6.30;1.00;;;;;;5095247;28;20174;-81
2023/12/30 00:38:04;;;;;;;0.80;0.80;;;6.30;1.00;;;;;;5099577;28;20853;-80
2023/12/30 00:40:30;;;;;;;0.70;0.70;;;6.30;1.00;;;;;;5115700;28;20158;-79
2023/12/30 00:42:55;;;;;;;0.70;0.70;;;6.30;1.00;;;;;;5114932;28;20174;-79
2023/12/30 00:45:21;;;;;;;0.70;0.70;;;6.40;1.00;;;;;;5114420;28;20599;-78
2023/12/30 00:47:46;;;;;;;0.70;0.70;;;6.50;1.00;;;;;;5113803;28;20189;-79
2023/12/30 00:50:13;;;;;;;0.77;0.77;;;6.50;1.00;;;;;;5103966;28;20174;-81
2023/12/30 00:52:38;;;;;;;0.70;0.70;;;6.60;1.00;;;;;;5094138;28;20174;-81
2023/12/30 00:55:05;;;;;;;0.63;0.63;;;6.80;1.00;;;;;;5092972;28;20592;-82
2023/12/30 00:57:30;;;;;;;0.70;0.70;;;6.90;1.00;;;;;;5093166;28;20686;-81
2023/12/30 00:59:56;;;;;;;0.77;0.77;;;7.00;1.00;;;;;;5093144;28;20181;-80
2023/12/30 01:02:21;;;;;;;0.80;0.80;;;7.30;1.00;;;;;;5106879;28;20260;-79
2023/12/30 01:04:47;;;;;;;0.70;0.70;;;7.50;1.00;;;;;;5112954;28;20185;-80
2023/12/30 01:07:13;;;;;;;0.80;0.80;;;7.60;1.00;;;;;;5099097;28;20216;-80
2023/12/30 01:09:38;;;;;;;0.77;0.77;;;7.70;1.00;;;;;;5100183;28;20168;-77
2023/12/30 01:12:04;;;;;;;0.70;0.70;;;7.60;1.00;;;;;;5112140;28;20585;-81
2023/12/30 01:14:30;;;;;;;0.80;0.80;;;7.70;1.00;;;;;;5094798;28;20560;-81
2023/12/30 01:16:55;;;;;;;0.70;0.70;;;7.90;1.00;;;;;;5094724;28;20198;-82
2023/12/30 01:19:21;;;;;;;0.77;0.77;;;7.90;1.00;;;;;;5094815;28;20180;-81
2023/12/30 01:21:47;;;;;;;0.73;0.73;;;8.10;1.00;;;;;;5094523;28;20170;-82
2023/12/30 01:24:13;;;;;;;0.80;0.80;;;8.20;1.00;;;;;;5093075;28;20451;-81
2023/12/30 01:26:39;;;;;;;0.70;0.70;;;8.20;1.00;;;;;;5092451;28;20247;-81
2023/12/30 01:29:04;;;;;;;0.77;0.77;;;8.30;1.00;;;;;;5097751;28;20170;-82
2023/12/30 01:31:30;;;;;;;0.77;0.77;;;8.40;1.00;;;;;;5098358;28;20674;-81
2023/12/30 01:33:55;;;;;;;0.70;0.70;;;8.30;1.00;;;;;;5098725;28;20643;-80
2023/12/30 01:36:21;;;;;;;0.70;0.70;;;8.40;1.00;;;;;;5097589;28;20568;-81
2023/12/30 01:38:47;;;;;;;0.70;0.70;;;8.40;1.00;;;;;;5098113;28;20731;-81
2023/12/30 01:41:13;;;;;;;0.80;0.80;;;8.40;1.00;;;;;;5096307;28;20170;-81
2023/12/30 01:43:38;;;;;;;0.70;0.70;;;8.20;1.00;;;;;;5098020;28;20424;-80
2023/12/30 01:46:07;;;;;;;0.70;0.70;;;8.10;1.00;;;;;;5096470;28;20198;-81
2023/12/30 01:48:33;;;;;;;0.60;0.60;;;8.10;1.00;;;;;;5098225;28;20651;-81
2023/12/30 01:51:01;;;;;;;0.70;0.70;;;8.00;1.00;;;;;;5096282;28;20616;-82
2023/12/30 01:53:28;;;;;;;0.60;0.60;;;8.00;1.00;;;;;;5098433;28;20186;-81
2023/12/30 01:55:57;;;;;;;0.73;0.73;;;8.00;1.00;;;;;;5096630;28;20186;-82
2023/12/30 01:58:22;;;;;;;0.70;0.70;;;8.10;1.00;;;;;;5097468;28;20174;-80
2023/12/30 02:00:48;;;;;;;0.70;0.70;;;8.10;1.00;;;;;;5097025;28;20177;-80
2023/12/30 02:03:15;;;;;;;0.70;0.70;;;8.00;1.00;;;;;;5095847;28;20227;-80
2023/12/30 02:05:41;;;;;;;0.73;0.73;;;8.10;1.00;;;;;;5097060;28;20200;-80
2023/12/30 02:08:08;;;;;;;0.70;0.70;;;8.10;1.00;;;;;;5097600;28;20258;-81
2023/12/30 02:10:33;;;;;;;0.63;0.63;;;8.10;1.00;;;;;;5097793;28;20240;-82
2023/12/30 02:12:59;;;;;;;0.70;0.70;;;8.10;1.00;;;;;;5095910;28;20170;-80
2023/12/30 02:15:25;;;;;;;0.63;0.63;;;8.10;1.00;;;;;;5097073;28;20202;-81
2023/12/30 02:17:54;;;;;;;0.60;0.60;;;8.10;1.00;;;;;;5095201;28;20527;-81
2023/12/30 02:20:20;;;;;;;0.70;0.70;;;8.00;1.00;;;;;;5096039;28;20205;-80
2023/12/30 02:22:46;;;;;;;0.73;0.73;;;8.00;1.00;;;;;;5096859;28;20170;-81
2023/12/30 02:25:13;;;;;;;0.70;0.70;;;8.00;1.00;;;;;;5097079;28;20197;-80
2023/12/30 02:27:39;;;;;;;0.70;0.70;;;8.00;1.00;;;;;;5096696;28;20552;-80
2023/12/30 02:30:05;;;;;;;0.70;0.70;;;8.10;1.00;;;;;;5097203;28;20224;-81
2023/12/30 02:32:31;;;;;;;0.70;0.70;;;8.00;1.00;;;;;;5096002;28;20205;-81
2023/12/30 02:34:56;;;;;;;0.80;0.80;;;8.00;1.00;;;;;;5096919;28;20174;-81
2023/12/30 02:37:22;;;;;;;0.70;0.70;;;8.10;1.00;;;;;;5096264;28;20198;-79
2023/12/30 02:39:47;;;;;;;0.70;0.70;;;8.10;1.00;;;;;;5096724;28;20242;-82
2023/12/30 02:42:13;;;;;;;0.80;0.80;;;8.00;1.00;;;;;;5096763;28;20165;-81
2023/12/30 02:44:38;;;;;;;0.83;0.83;;;8.10;1.00;;;;;;5095391;28;20161;-81
2023/12/30 02:47:04;;;;;;;0.80;0.80;;;8.10;1.00;;;;;;5096303;28;20550;-80
2023/12/30 02:49:31;;;;;;;0.70;0.70;;;8.20;1.00;;;;;;5096999;28;20170;-81
2023/12/30 02:51:57;;;;;;;0.80;0.80;;;8.20;1.00;;;;;;5096647;28;20259;-81
2023/12/30 02:54:23;;;;;;;0.70;0.70;;;8.20;1.00;;;;;;5096742;28;20593;-81
2023/12/30 02:56:48;;;;;;;0.70;0.70;;;8.20;1.00;;;;;;5095696;28;20239;-80
2023/12/30 02:59:14;;;;;;;0.70;0.70;;;8.20;1.00;;;;;;5096251;28;20261;-81
2023/12/30 03:01:39;;;;;;;0.73;0.73;;;8.20;1.00;;;;;;5096221;28;20184;-81
2023/12/30 03:04:05;;;;;;;0.70;0.70;;;8.10;1.00;;;;;;5096184;28;20215;-81
2023/12/30 03:06:30;;;;;;;0.70;0.70;;;8.20;99.90;;;;;;5095590;28;20198;-81
2023/12/30 03:08:56;;;;;;;0.70;0.70;;;8.20;99.90;;;;;;5096224;28;20170;-81
2023/12/30 03:11:22;;;;;;;0.70;0.70;;;8.20;99.90;;;;;;5096179;28;20205;-81
2023/12/30 03:13:48;;;;;;;0.70;0.70;;;8.20;1.00;;;;;;5096565;28;20178;-80
2023/12/30 03:16:15;;;;;;;0.70;0.70;;;8.20;1.00;;;;;;5096348;28;20193;-81
2023/12/30 03:18:42;;;;;;;0.70;0.70;;;8.20;1.00;;;;;;5097515;28;20178;-81
2023/12/30 03:21:09;;;;;;;0.70;0.70;;;8.20;1.00;;;;;;5096508;28;20256;-82
2023/12/30 03:23:36;;;;;;;0.60;0.60;;;8.10;1.00;;;;;;5095960;28;20176;-81
2023/12/30 03:26:03;;;;;;;0.70;0.70;;;8.20;1.00;;;;;;5095936;28;20197;-82
2023/12/30 03:28:29;;;;;;;0.70;0.70;;;8.20;1.00;;;;;;5097120;28;20193;-80
2023/12/30 03:30:54;;;;;;;0.73;0.73;;;8.10;1.00;;;;;;5098943;28;20207;-81
2023/12/30 03:33:20;;;;;;;0.77;0.77;;;8.10;1.00;;;;;;5115571;28;20222;-81
2023/12/30 03:35:46;;;;;;;0.70;0.70;;;8.20;1.00;;;;;;5116423;28;20189;-81
2023/12/30 03:38:11;;;;;;;0.80;0.80;;;8.20;1.00;;;;;;5117309;28;20169;-81
2023/12/30 03:40:37;;;;;;;0.70;0.70;;;8.20;1.00;;;;;;5116155;28;20183;-80
2023/12/30 03:43:03;;;;;;;0.60;0.60;;;8.30;1.00;;;;;;5131637;28;20177;-79
2023/12/30 03:45:29;;;;;;;0.77;0.77;;;8.30;1.00;;;;;;5123224;28;20188;-82
2023/12/30 03:47:56;;;;;;;0.70;0.70;;;8.30;1.00;;;;;;5118227;28;20772;-82
2023/12/30 03:50:21;;;;;;;0.63;0.63;;;8.20;1.00;;;;;;5116760;28;20675;-82
2023/12/30 03:52:47;;;;;;;0.70;0.70;;;8.20;1.00;;;;;;5118254;28;20174;-80
2023/12/30 03:55:13;;;;;;;0.80;0.80;;;8.20;1.00;;;;;;5117402;28;20181;-82
2023/12/30 03:57:39;;;;;;;0.70;0.70;;;8.30;1.00;;;;;;5116303;28;20204;-82
2023/12/30 04:00:05;;;;;;;0.70;0.70;;;8.20;1.00;;;;;;5117088;28;20209;-82
2023/12/30 04:02:30;;;;;;;0.70;0.70;;;8.20;1.00;;;;;;5116135;28;20198;-82
2023/12/30 04:04:56;;;;;;;0.70;0.70;;;8.30;1.00;;;;;;5116274;28;20177;-82
2023/12/30 04:07:22;;;;;;;0.70;0.70;;;8.30;1.00;;;;;;5115479;28;20208;-82
2023/12/30 04:09:47;;;;;;;0.77;0.77;;;8.20;1.00;;;;;;5116340;27;20597;-82
2023/12/30 04:12:13;;;;;;;0.87;0.87;;;8.20;1.00;;;;;;5116210;28;20690;-83
2023/12/30 04:14:38;;;;;;;0.70;0.70;;;8.20;1.00;;;;;;5116194;28;20348;-82
2023/12/30 04:17:04;;;;;;;0.83;0.83;;;8.30;1.00;;;;;;5115320;28;20220;-81
2023/12/30 04:19:29;;;;;;;0.70;0.70;;;8.20;1.00;;;;;;5115536;28;20187;-81
2023/12/30 04:21:55;;;;;;;0.80;0.80;;;8.20;1.00;;;;;;5115313;28;20227;-81
2023/12/30 04:24:22;;;;;;;0.80;0.80;;;8.20;1.00;;;;;;5114501;28;20169;-82
2023/12/30 04:26:49;;;;;;;0.70;0.70;;;8.30;1.00;;;;;;5113699;28;20193;-82
2023/12/30 04:29:15;;;;;;;0.70;0.70;;;8.20;1.00;;;;;;5114495;28;20260;-81
2023/12/30 04:31:40;;;;;;;0.70;0.70;;;8.30;1.00;;;;;;5115067;28;20244;-82
2023/12/30 04:34:06;;;;;;;0.70;0.70;;;8.30;1.00;;;;;;5114935;28;20180;-81
2023/12/30 04:36:31;;;;;;;0.70;0.70;;;8.30;1.00;;;;;;5114089;28;20193;-81
2023/12/30 04:38:57;;;;;;;0.80;0.80;;;8.20;1.00;;;;;;5113589;28;20173;-81
2023/12/30 04:41:23;;;;;;;0.70;0.70;;;8.30;1.00;;;;;;5113967;28;20184;-80
2023/12/30 04:43:48;;;;;;;0.80;0.80;;;8.30;1.00;;;;;;5113924;28;20169;-80
2023/12/30 04:46:14;;;;;;;0.70;0.70;;;8.20;1.00;;;;;;5126989;28;20201;-79
2023/12/30 04:48:39;;;;;;;0.70;0.70;;;8.20;1.00;;;;;;5129448;28;20217;-81
2023/12/30 04:51:05;;;;;;;0.70;0.70;;;8.20;1.00;;;;;;5128813;28;20240;-80
2023/12/30 04:53:31;;;;;;;0.80;0.80;;;8.20;1.00;;;;;;5127583;28;20212;-81
2023/12/30 04:55:56;;;;;;;0.70;0.70;;;8.20;1.00;;;;;;5116677;28;20193;-82
2023/12/30 04:58:22;;;;;;;0.80;0.80;;;8.20;1.00;;;;;;5116675;28;20169;-82
2023/12/30 05:00:48;;;;;;;0.80;0.80;;;8.20;1.00;;;;;;5117149;28;20172;-81
2023/12/30 05:03:15;;;;;;;0.77;0.77;;;8.30;1.00;;;;;;5118806;28;20176;-82
2023/12/30 05:05:41;;;;;;;0.80;0.80;;;8.30;1.00;;;;;;5126740;27;20173;-79
2023/12/30 05:08:07;;;;;;;0.70;0.70;;;8.30;1.00;;;;;;5136348;28;20272;-81
2023/12/30 05:10:33;;;;;;;0.70;0.70;;;8.30;1.00;;;;;;5123637;28;20177;-81
2023/12/30 05:12:59;;;;;;;0.70;0.70;;;8.20;1.00;;;;;;5123149;28;20260;-81
2023/12/30 05:15:25;;;;;;;0.70;0.70;;;8.30;1.00;;;;;;5122654;28;20177;-81
2023/12/30 05:17:50;;;;;;;0.70;0.70;;;8.30;1.00;;;;;;5121215;28;20710;-80
2023/12/30 05:20:17;;;;;;;0.60;0.60;;;8.30;1.00;;;;;;5121494;28;20161;-81
2023/12/30 05:22:43;;;;;;;0.70;0.70;;;8.50;1.00;;;;;;5131245;28;20181;-77
2023/12/30 05:25:09;;;;;;;0.70;0.70;;;8.10;1.00;;;;;;5131923;28;20192;-81
2023/12/30 05:27:35;;;;;;;0.70;0.70;;;8.10;1.00;;;;;;5119689;28;20292;-82
2023/12/30 05:30:01;;;;;;;0.70;0.70;;;8.10;1.00;;;;;;5120919;28;20173;-82
2023/12/30 05:32:27;;;;;;;0.60;0.60;;;8.10;1.00;;;;;;5121148;28;20209;-81
2023/12/30 05:34:52;;;;;;;0.60;0.60;;;8.10;1.00;;;;;;5120647;28;20267;-82
2023/12/30 05:37:18;;;;;;;0.70;0.70;;;8.10;1.00;;;;;;5125655;28;20283;-79
2023/12/30 05:39:44;;;;;;;0.70;0.70;;;8.10;1.00;;;;;;5132528;27;20170;-81
2023/12/30 05:42:09;;;;;;;0.80;0.80;;;8.10;1.00;;;;;;5131536;28;20208;-81
2023/12/30 05:44:36;;;;;;;0.70;0.70;;;8.10;1.00;;;;;;5123786;28;20622;-81
2023/12/30 05:47:02;;;;;;;0.70;0.70;;;8.10;1.00;;;;;;5120160;28;20222;-82
2023/12/30 05:49:27;;;;;;;0.63;0.63;;;8.10;1.00;;;;;;5120012;28;20226;-80
2023/12/30 05:51:53;;;;;;;0.70;0.70;;;8.10;5.80;;;;;;5120751;28;20295;-82
2023/12/30 05:54:19;;;;;;;0.73;0.73;;;8.10;20.10;;;;;;5120622;28;20177;-82
2023/12/30 05:56:44;;;;;;;0.70;0.70;;;8.10;27.30;;;;;;5119619;28;20205;-82
2023/12/30 05:59:10;;;;;;;0.80;0.80;;;8.10;38.30;;;;;;5120052;28;20238;-83
2023/12/30 06:01:44;;;;;;;0.73;0.73;;;8.00;53.80;;;;;;5117962;28;20169;-82
2023/12/30 06:04:10;;;;;;;0.70;0.70;;;8.00;61.60;;;;;;5118975;28;20256;-83
2023/12/30 06:06:35;;;;;;;0.73;0.73;;;8.00;88.40;;;;;;5118498;28;20260;-82
2023/12/30 06:09:01;;;;;;;0.67;0.67;;;7.90;93.50;;;;;;5119252;28;20165;-82
2023/12/30 06:11:26;;;;;;;0.70;0.70;;;7.90;99.90;;;;;;5120300;28;20220;-83
2023/12/30 06:13:52;;;;;;;0.70;0.70;;;7.80;99.90;;;;;;5119250;28;20216;-82
2023/12/30 06:16:17;;;;;;;0.80;0.80;;;7.90;99.90;;;;;;5118559;28;20205;-82
2023/12/30 06:18:43;;;;;;;0.70;0.70;;;7.90;99.90;;;;;;5126086;28;20189;-79
2023/12/30 06:21:09;;;;;;;0.80;0.80;;;7.80;99.90;;;;;;5132699;28;20197;-82
2023/12/30 06:23:34;;;;;;;0.80;0.80;;;7.90;99.90;;;;;;5119875;28;20173;-83
2023/12/30 06:26:03;;;;;;;0.70;0.70;;;7.90;99.90;;;;;;5118060;28;20740;-82
2023/12/30 06:28:28;;;;;;;0.60;0.60;;;7.90;99.90;;;;;;5119305;28;20632;-80
2023/12/30 06:30:54;;;;;;;0.67;0.67;;;8.00;99.90;;;;;;5118885;28;20713;-83
2023/12/30 06:33:23;;;;;;;0.70;0.70;;;8.00;99.90;;;;;;5118433;28;20176;-82
2023/12/30 06:35:49;;;;;;;0.63;0.63;;;7.90;99.90;;;;;;5118458;28;20196;-83
2023/12/30 06:38:15;;;;;;;0.73;0.73;;;7.90;99.90;;;;;;5118240;28;20176;-81
2023/12/30 06:40:45;;;;;;;0.70;0.70;;;7.90;99.90;;;;;;5118167;28;20269;-82
2023/12/30 06:43:11;;;;;;;0.60;0.60;;;7.90;99.90;;;;;;5118672;28;20173;-81
2023/12/30 06:45:37;;;;;;;0.70;0.70;;;8.00;99.90;;;;;;5118224;28;20174;-81
2023/12/30 06:48:03;;;;;;;0.73;0.73;;;7.90;99.90;;;;;;5118286;28;20173;-83
2023/12/30 06:50:28;;;;;;;0.80;0.80;;;7.90;99.90;;;;;;5118207;27;20652;-83
2023/12/30 06:52:55;;;;;;;0.70;0.70;;;8.50;99.90;;;;;;5118677;28;20199;-82
2023/12/30 06:55:21;;;;;;;0.70;0.70;;;8.00;99.90;;;;;;5118809;28;20172;-81
2023/12/30 06:57:47;;;;;;;0.60;0.60;;;8.00;99.90;;;;;;5118636;28;20189;-82
2023/12/30 07:00:13;;;;;;;0.67;0.67;;;8.00;99.90;;;;;;5119000;28;20174;-82
2023/12/30 07:02:40;;;;;;;0.60;0.60;;;8.00;99.90;;;;;;5118370;28;20165;-83
2023/12/30 07:05:06;;;;;;;0.63;0.63;;;8.00;99.90;;;;;;5117376;28;20169;-82
2023/12/30 07:07:32;;;;;;;0.60;0.60;;;7.90;99.90;;;;;;5118452;28;20373;-82
2023/12/30 07:09:57;;;;;;;0.70;0.70;;;7.90;99.90;;;;;;5118439;28;20242;-81
2023/12/30 07:12:23;;;;;;;0.70;0.70;;;7.90;99.90;;;;;;5117620;28;20215;-82
2023/12/30 07:14:49;;;;;;;0.70;0.70;;;7.90;99.90;;;;;;5117963;28;20575;-83
2023/12/30 07:17:15;;;;;;;0.60;0.60;;;7.80;99.90;;;;;;5118060;28;20197;-82
2023/12/30 07:19:41;;;;;;;0.70;0.70;;;7.90;99.90;;;;;;5134602;28;20267;-81
2023/12/30 07:22:07;;;;;;;0.60;0.60;;;7.90;99.90;;;;;;5137255;28;20185;-79
2023/12/30 07:24:33;;;;;;;0.77;0.77;;;7.90;99.90;;;;;;5135932;28;20169;-78
2023/12/30 07:26:59;;;;;;;0.60;0.60;;;7.90;99.90;;;;;;5135456;28;20185;-80
2023/12/30 07:29:24;;;;;;;0.70;0.70;;;7.90;99.90;;;;;;5127584;28;20225;-82
2023/12/30 07:31:50;;;;;;;0.60;0.60;;;7.70;99.90;;;;;;5109900;28;20698;-82
2023/12/30 07:34:17;;;;;;;0.60;0.60;;;7.60;99.90;;;;;;5109495;27;20165;-82
2023/12/30 07:36:43;;;;;;;0.60;0.60;;;7.60;99.90;;;;;;5109421;28;20197;-82
2023/12/30 07:39:08;;;;;;;0.70;0.70;;;7.50;99.90;;;;;;5107383;28;20182;-82
2023/12/30 07:41:34;;;;;;;0.60;0.60;;;7.60;99.90;;;;;;5112456;28;20248;-82
2023/12/30 07:43:59;;;;;;;0.70;0.70;;;7.60;99.90;;;;;;5112675;28;20173;-82
2023/12/30 07:46:25;;;;;;;0.70;0.70;;;7.70;99.90;;;;;;5108200;28;20193;-82
2023/12/30 07:48:51;;;;;;;0.70;0.70;;;7.70;99.90;;;;;;5110411;28;20189;-83
2023/12/30 07:51:16;;;;;;;0.70;0.70;;;7.70;99.90;;;;;;5114612;28;20305;-83
2023/12/30 07:53:42;;;;;;;0.70;0.70;;;7.70;99.90;;;;;;5118277;28;20211;-82
2023/12/30 07:56:08;;;;;;;0.67;0.67;;;7.80;99.90;;;;;;5110465;28;20558;-82
2023/12/30 07:58:34;;;;;;;0.70;0.70;;;8.30;99.90;;;;;;5107581;27;20265;-82
2023/12/30 08:01:00;;;;;;;0.63;0.63;;;8.30;99.90;;;;;;5107440;28;20170;-83
2023/12/30 08:03:25;;;;;;;0.60;0.60;;;8.40;99.90;;;;;;5120272;28;20184;-80
2023/12/30 08:05:51;;;;;;;0.63;0.63;;;8.40;99.90;;;;;;5108912;28;20237;-83
2023/12/30 08:08:16;;;;;;;0.60;0.60;;;8.50;99.90;;;;;;5109135;28;20198;-82
2023/12/30 08:10:42;;;;;;;0.70;0.70;;;8.70;95.50;;;;;;5103124;28;20205;-83
2023/12/30 08:13:09;;;;;;;0.70;0.70;;;8.80;74.50;;;;;;5102468;28;20213;-81
2023/12/30 08:15:34;;;;;;;0.70;0.70;;;9.20;48.50;;;;;;5103333;28;20185;-83
2023/12/30 08:18:00;;;;;;;0.60;0.60;;;10.70;1.00;;;;;;5104124;28;20169;-85
2023/12/30 08:20:25;;;;;;;0.50;0.50;;;11.30;99.90;;;;;;5106578;28;20252;-83
2023/12/30 08:22:51;;;;;;;0.60;0.60;;;11.10;1.00;;;;;;5107098;27;20256;-85
2023/12/30 08:25:16;;;;;;;0.57;0.57;;;10.60;1.00;;;;;;5107375;28;20196;-83
2023/12/30 08:27:42;;;;;;;0.50;0.50;;;11.10;99.90;;;;;;5107251;28;20198;-83
2023/12/30 08:30:08;;;;;;;0.50;0.50;;;11.70;1.00;;;;;;5106872;28;20277;-83
2023/12/30 08:32:34;;;;;;;0.50;0.50;;;13.20;1.00;;;;;;5109197;28;20704;-83
2023/12/30 08:35:02;;;;;;;0.40;0.40;;;13.60;1.00;;;;;;5117517;28;20173;-83
2023/12/30 08:37:28;;;;;;;0.40;0.40;;;12.40;99.90;;;;;;5115007;28;20224;-85
2023/12/30 08:39:54;;;;;;;0.43;0.43;;;12.30;99.90;;;;;;5116295;28;20197;-83
2023/12/30 08:42:21;;;;;;;0.40;0.40;;;;;;;;;;5120092;28;20171;-83
2023/12/30 08:44:47;;;;;;;0.40;0.40;;;;;;;;;;5121603;28;20177;-82
2023/12/30 08:47:15;;;;;;;0.50;0.50;;;;;;;;;;5119635;28;20227;-82
2023/12/30 08:49:40;;;;;;;0.50;0.50;;;13.50;99.90;;;;;;5110327;28;20587;-83
2023/12/30 08:52:06;;;;;;;0.47;0.47;;;12.40;99.90;;;;;;5114411;28;20196;-80
2023/12/30 08:54:32;;;;;;;0.50;0.50;;;12.10;1.00;;;;;;5115353;28;20181;-83
2023/12/30 08:56:57;;;;;;;0.53;0.53;;;11.80;1.00;;;;;;5114430;28;20193;-84
2023/12/30 08:59:26;;;;;;;0.70;0.70;;;11.50;1.00;;;;;;5118655;28;20209;-83
2023/12/30 09:01:52;;;;;;;0.50;0.50;;;11.30;1.00;;;;;;5117812;28;20697;-82
2023/12/30 09:04:18;;;;;;;0.60;0.60;;;11.20;1.00;;;;;;5118414;28;20169;-83
2023/12/30 09:06:43;;;;;;;0.50;0.50;;;11.40;99.90;;;;;;5118474;28;20201;-83
2023/12/30 09:09:09;;;;;;;0.50;0.50;;;11.60;99.90;;;;;;5119175;28;20169;-83
2023/12/30 09:11:38;;;;;;;0.53;0.53;;;11.40;1.00;;;;;;5118297;28;20299;-81
2023/12/30 09:14:07;;;;;;;0.50;0.50;;;11.00;1.00;;;;;;5117965;28;20173;-83
2023/12/30 09:16:32;;;;;;;0.50;0.50;;;10.90;99.90;;;;;;5116692;28;20215;-83
2023/12/30 09:18:58;;;;;;;0.50;0.50;;;10.70;1.00;;;;;;5118656;28;20260;-82
2023/12/30 09:21:24;;;;;;;0.50;0.50;;;10.70;1.00;;;;;;5116539;28;20174;-82
2023/12/30 09:23:50;;;;;;;0.50;0.50;;;10.90;1.00;;;;;;5121642;28;20180;-80
2023/12/30 09:26:17;;;;;;;0.50;0.50;;;11.00;1.00;;;;;;5128846;28;20189;-81
2023/12/30 09:28:43;;;;;;;0.60;0.60;;;11.00;1.00;;;;;;5133087;28;20183;-80
2023/12/30 09:31:09;;;;;;;0.50;0.50;;;11.00;99.90;;;;;;5133327;28;20240;-83
2023/12/30 09:33:34;;;;;;;0.57;0.57;;;10.80;99.90;;;;;;5133714;28;20169;-80
2023/12/30 09:36:00;;;;;;;0.60;0.60;;;10.80;99.90;;;;;;5131109;28;20533;-80
2023/12/30 09:38:26;;;;;;;0.50;0.50;;;11.20;99.90;;;;;;5131458;28;20178;-83
2023/12/30 09:40:55;;;;;;;0.40;0.40;;;11.90;1.00;;;;;;5120767;28;20719;-85
2023/12/30 09:43:25;;;;;;;0.43;0.43;;;12.30;99.90;;;;;;5124692;28;20181;-84
2023/12/30 09:45:52;;;;;;;0.57;0.57;;;12.50;1.00;;;;;;5124761;28;20197;-82
2023/12/30 09:48:27;;;;;;;0.50;0.50;;;12.40;1.00;;;;;;5126026;28;20311;-83
2023/12/30 09:50:56;;;;;;;0.40;0.40;;;12.10;1.00;;;;;;5127460;28;20206;-84
2023/12/30 09:53:23;;;;;;;0.50;0.50;;;12.10;1.00;;;;;;5118739;27;20202;-83
2023/12/30 09:55:52;;;;;;;0.50;0.50;;;12.20;1.00;;;;;;5113990;28;20189;-83
2023/12/30 09:58:20;;;;;;;0.50;0.50;;;12.30;1.00;;;;;;5112221;28;20180;-84
2023/12/30 10:00:46;;;;;;;0.50;0.50;;;12.70;1.00;;;;;;5120749;28;20622;-82
2023/12/30 10:03:13;;;;;;;0.40;0.40;;;13.10;99.90;;;;;;5110020;28;20185;-83
2023/12/30 10:05:39;;;;;;;0.50;0.50;;;13.10;99.90;;;;;;5122523;28;20184;-84
2023/12/30 10:08:05;;;;;;;0.50;0.50;;;13.10;99.90;;;;;;5107703;28;20221;-85
2023/12/30 10:10:44;;;;;;;0.40;0.40;;;13.30;99.90;;;;;;5120527;28;20184;-84
2023/12/30 10:13:14;;;;;;;0.43;0.43;;;14.10;55.60;;;;;;5123654;28;20176;-83
2023/12/30 10:15:40;;;;;;;0.50;0.50;;;14.40;1.00;;;;;;5124299;28;20177;-82
2023/12/30 10:18:07;;;;;;;0.40;0.40;;;14.60;1.00;;;;;;5123419;28;20192;-83
2023/12/30 10:20:41;;;;;;;0.40;0.40;;;15.50;1.00;;;;;;5108773;28;20182;-86
2023/12/30 10:23:07;;;;;;;0.30;0.30;;;16.40;1.00;;;;;;5109270;28;20354;-85
2023/12/30 10:25:34;;;;;;;0.50;0.50;;;16.70;1.00;;;;;;5112383;28;20288;-84
2023/12/30 10:28:00;;;;;;;0.30;0.30;;;17.50;1.00;;;;;;5110372;28;20165;-82
2023/12/30 10:30:28;;;;;;;0.30;0.30;;;18.00;1.00;;;;;;5109755;28;20542;-83
2023/12/30 10:33:10;;;;;;;0.50;0.50;;;18.90;1.00;;;;;;5110062;28;20190;-80
2023/12/30 10:35:38;;;;;;;0.30;0.30;;;18.80;1.00;;;;;;5108693;28;20174;-78
2023/12/30 10:38:06;;;;;;;0.40;0.40;;;18.10;1.00;;;;;;5105992;28;20197;-79
2023/12/30 10:40:32;;;;;;;0.40;0.40;;;18.30;1.00;;;;;;5111532;28;20546;-84
2023/12/30 10:42:59;;;;;;;0.40;0.40;;;18.80;1.00;;;;;;5102630;28;20173;-80
2023/12/30 10:45:25;;;;;;;0.40;0.40;;;19.10;1.00;;;;;;5108156;28;20223;-83
2023/12/30 10:47:53;;;;;;;0.30;0.30;;;19.10;1.00;;;;;;5107917;28;20181;-84
2023/12/30 10:50:20;;;;;;;0.40;0.40;;;18.30;1.00;;;;;;5104753;28;20170;-82
2023/12/30 10:52:51;;;;;;;0.40;0.40;;;17.90;1.00;;;;;;5106119;27;20559;-82
2023/12/30 10:55:19;;;;;;;0.40;0.40;;;17.70;1.00;;;;;;5106572;28;20265;-81
2023/12/30 10:57:50;;;;;;;0.40;0.40;;;17.60;1.00;;;;;;5102731;28;20193;-81
2023/12/30 11:00:20;;;;;;;0.43;0.43;;;17.30;1.00;;;;;;5110844;28;20174;-81
2023/12/30 11:02:47;;;;;;;0.33;0.33;;;17.00;1.00;;;;;;5117211;28;20181;-82
2023/12/30 11:05:25;;;;;;;0.40;0.40;;;17.10;1.00;;;;;;5109297;28;20560;-83
2023/12/30 11:07:51;;;;;;;0.40;0.40;;;16.90;1.00;;;;;;5117158;28;20216;-82
2023/12/30 11:10:20;;;;;;;0.30;0.30;;;17.10;1.00;;;;;;5103058;28;20659;-82
2023/12/30 11:12:46;;;;;;;0.30;0.30;;;17.30;1.00;;;;;;5104571;28;20283;-80
2023/12/30 11:15:29;;;;;;;0.30;0.30;;;17.30;1.00;;;;;;5115210;28;20181;-82
2023/12/30 11:17:56;;;;;;;0.40;0.40;;;17.40;1.00;;;;;;5104624;28;20185;-80
2023/12/30 11:20:32;;;;;;;0.40;0.40;;;17.60;1.00;;;;;;5107978;28;20626;-81
2023/12/30 11:23:00;;;;;;;0.40;0.40;;;17.80;1.00;;;;;;5108454;28;20166;-81
2023/12/30 11:25:33;;;;;;;0.40;0.40;;;18.20;1.00;;;;;;5104267;28;20170;-82
2023/12/30 11:28:17;;;;;;;0.40;0.40;;;18.40;1.00;;;;;;5103999;28;20208;-82
2023/12/30 11:30:44;;;;;;;0.40;0.40;;;19.10;1.00;;;;;;5105096;28;20173;-82
2023/12/30 11:33:10;;;;;;;0.40;0.40;;;18.60;1.00;;;;;;5105315;28;20200;-83
2023/12/30 11:35:36;;;;;;;0.33;0.33;;;17.70;1.00;;;;;;5105595;28;20178;-82
2023/12/30 11:38:09;;;;;;;0.30;0.30;;;17.00;1.00;;;;;;5105251;28;20165;-83
2023/12/30 11:40:41;;;;;;;0.40;0.40;;;16.50;1.00;;;;;;5106772;28;20174;-82
2023/12/30 11:43:10;;;;;;;0.40;0.40;;;16.10;1.00;;;;;;5106101;28;20229;-80
2023/12/30 11:45:37;;;;;;;0.40;0.40;;;15.80;1.00;;;;;;5104488;28;20214;-83
2023/12/30 11:48:03;;;;;;;0.30;0.30;;;15.60;1.00;;;;;;5104967;28;20283;-82
2023/12/30 11:50:29;;;;;;;0.40;0.40;;;15.40;1.00;;;;;;5106590;28;20209;-83
2023/12/30 11:52:56;;;;;;;0.40;0.40;;;15.00;1.00;;;;;;5107837;28;20210;-79
2023/12/30 11:55:23;;;;;;;0.30;0.30;;;14.70;1.00;;;;;;5108849;28;20181;-81
2023/12/30 11:57:49;;;;;;;0.40;0.40;;;14.40;1.00;;;;;;5106888;28;20193;-83
2023/12/30 12:00:15;;;;;;;0.50;0.50;;;14.30;1.00;;;;;;5105388;28;20180;-84
2023/12/30 12:02:41;;;;;;;0.40;0.40;;;14.20;1.00;;;;;;5105496;28;20170;-81
2023/12/30 12:05:07;;;;;;;0.50;0.50;;;14.40;1.00;;;;;;5103482;28;20269;-84
2023/12/30 12:07:33;;;;;;;0.40;0.40;;;14.50;1.00;;;;;;5099902;28;20211;-80
2023/12/30 12:09:59;;;;;;;0.40;0.40;;;14.50;1.00;;;;;;5101677;28;20184;-83
2023/12/30 12:12:25;;;;;;;0.40;0.40;;;13.90;1.00;;;;;;5101351;28;20587;-83
2023/12/30 12:14:51;;;;;;;0.50;0.50;;;13.80;1.00;;;;;;5101604;28;20177;-81
2023/12/30 12:17:20;;;;;;;0.50;0.50;;;13.90;1.00;;;;;;5100916;28;20193;-81
2023/12/30 12:19:47;;;;;;;0.50;0.50;;;13.80;1.00;;;;;;5099522;28;20174;-82
2023/12/30 12:22:15;;;;;;;0.50;0.50;;;13.50;1.00;;;;;;5098893;28;20178;-81
2023/12/30 12:24:42;;;;;;;0.50;0.50;;;13.40;1.00;;;;;;5099046;28;20598;-80
2023/12/30 12:27:08;;;;;;;0.50;0.50;;;13.40;1.00;;;;;;5099386;28;20281;-82
2023/12/30 12:29:50;;;;;;;0.40;0.40;;;14.00;1.00;;;;;;5099818;28;20227;-82
2023/12/30 12:32:21;;;;;;;0.60;0.60;;;14.40;1.00;;;;;;5100236;28;20201;-81
2023/12/30 12:34:48;;;;;;;0.50;0.50;;;14.80;1.00;;;;;;5099646;28;20649;-82
2023/12/30 12:37:17;;;;;;;0.50;0.50;;;15.40;1.00;;;;;;5096318;28;20241;-81
2023/12/30 12:39:43;;;;;;;0.50;0.50;;;15.80;1.00;;;;;;5108170;28;20539;-83
2023/12/30 12:42:14;;;;;;;0.40;0.40;;;16.20;1.00;;;;;;5111314;28;20320;-81
2023/12/30 12:44:41;;;;;;;0.40;0.40;;;16.20;1.00;;;;;;5103720;28;20292;-81
2023/12/30 12:47:08;;;;;;;0.40;0.40;;;16.30;1.00;;;;;;5109780;28;20336;-82
2023/12/30 12:49:34;;;;;;;0.40;0.40;;;15.90;1.00;;;;;;5108444;28;20260;-81
2023/12/30 12:52:02;;;;;;;0.43;0.43;;;15.90;1.00;;;;;;5105879;28;20205;-81
2023/12/30 12:54:29;;;;;;;0.40;0.40;;;16.00;1.00;;;;;;5105531;28;20192;-81
2023/12/30 12:56:56;;;;;;;0.40;0.40;;;16.10;1.00;;;;;;5102181;28;20204;-82
2023/12/30 12:59:22;;;;;;;0.40;0.40;;;16.30;1.00;;;;;;5100862;28;20548;-81